Louis, Missouri
Current Conditions -  °F | °C
As of 10:53 AM on Friday 28 Nov 2014 (Local Time) from KCPS Reporting Station
Clear Clear  
Wind Chill: 31°   Ceiling: Unl
Heat Index: 39°   Visibility: 10mi
Dew Point: 30°   Wind: 13mph
Humidity: 70%   Direction: 160°SSE
Pressure: 30.17"   Gusts: NA
Location:  38.6578°N, 90.2474°W
Report Text: KCPS 281653Z 16011KT 10SM CLR 04/M01 A3017 RMK AO2 SLP218 T00391011
Loading
Personal Weather Stations






























Interactive Weather Map New forecast layout! Learn more

10-Day Weather Forecast

Advertisements
Track Severe Weather on mobile